createdAt,value
2018-11-21T00:01:19.925Z,29.23
2018-11-21T00:04:11.175Z,31.83
2018-11-21T00:06:55.008Z,29.90
2018-11-21T00:09:46.212Z,28.20
2018-11-21T00:12:29.865Z,31.37
2018-11-21T00:15:21.098Z,28.03
2018-11-21T00:18:06.620Z,28.17
2018-11-21T00:20:56.014Z,28.00
2018-11-21T00:23:39.525Z,26.67
2018-11-21T00:26:30.798Z,29.07
2018-11-21T00:29:14.826Z,28.73
2018-11-21T00:32:06.193Z,32.33
2018-11-21T00:34:50.476Z,28.27
2018-11-21T00:37:41.721Z,27.70
2018-11-21T00:40:25.055Z,31.77
2018-11-21T00:43:16.302Z,29.97
2018-11-21T00:46:02.462Z,30.00
2018-11-21T00:49:03.718Z,28.70
2018-11-21T00:51:54.279Z,31.27
2018-11-21T00:54:45.543Z,30.20
2018-11-21T00:57:28.983Z,30.27
2018-11-21T01:00:20.284Z,30.97
2018-11-21T01:03:03.840Z,30.10
2018-11-21T01:05:57.040Z,29.17
2018-11-21T01:08:42.489Z,28.43
2018-11-21T01:11:31.680Z,32.03
2018-11-21T01:14:15.167Z,30.47
2018-11-21T01:17:06.518Z,30.77
2018-11-21T01:19:49.955Z,29.87
2018-11-21T01:22:41.177Z,30.30
2018-11-21T01:25:24.854Z,33.07
2018-11-21T01:28:16.051Z,29.90
2018-11-21T01:31:00.084Z,30.53
2018-11-21T01:33:51.402Z,29.73
2018-11-21T01:36:37.208Z,28.53
2018-11-21T01:39:26.621Z,32.03
2018-11-21T01:41:59.009Z,29.57
2018-11-21T01:44:50.206Z,30.50
2018-11-21T01:47:34.108Z,31.43
2018-11-21T01:50:27.584Z,31.60
2018-11-21T01:53:09.261Z,28.37
2018-11-21T01:56:00.483Z,31.00
2018-11-21T01:58:47.324Z,29.80
2018-11-21T02:01:41.052Z,28.43
2018-11-21T02:04:22.432Z,30.63
2018-11-21T02:07:14.200Z,30.50
2018-11-21T02:09:57.975Z,31.93
2018-11-21T02:13:10.119Z,32.40
2018-11-21T02:15:56.108Z,33.43
2018-11-21T02:18:37.763Z,31.03
2018-11-21T02:21:29.169Z,32.27
2018-11-21T02:24:12.949Z,32.90
2018-11-21T02:27:07.479Z,30.73
2018-11-21T02:29:47.843Z,27.23
2018-11-21T02:32:39.124Z,30.83
2018-11-21T02:35:22.852Z,28.23
2018-11-21T02:38:16.899Z,27.23
2018-11-21T02:40:57.804Z,29.47
2018-11-21T02:43:48.997Z,28.37
2018-11-21T02:46:32.864Z,28.97
2018-11-21T02:49:24.140Z,30.63
2018-11-21T02:52:08.133Z,28.87
2018-11-21T02:54:59.372Z,29.87
2018-11-21T02:57:43.392Z,31.33
2018-11-21T03:00:34.582Z,32.77
2018-11-21T03:03:18.289Z,30.13
2018-11-21T03:06:10.601Z,28.63
2018-11-21T03:08:54.874Z,29.00
2018-11-21T03:11:46.384Z,29.20
2018-11-21T03:14:29.842Z,29.73
2018-11-21T03:17:21.057Z,32.77
2018-11-21T03:20:05.389Z,30.73
2018-11-21T03:22:56.631Z,29.57
2018-11-21T03:25:40.594Z,32.57
2018-11-21T03:28:31.808Z,28.13
2018-11-21T03:34:08.714Z,31.40
2018-11-21T03:36:54.133Z,28.90
2018-11-21T03:39:45.402Z,29.00
2018-11-21T03:42:51.231Z,27.77
2018-11-21T03:45:40.245Z,30.17
2018-11-21T03:48:23.930Z,28.47
2018-11-21T03:51:15.187Z,31.07
2018-11-21T03:53:58.552Z,30.07
2018-11-21T03:56:42.405Z,27.90
2018-11-21T03:59:36.609Z,30.10
2018-11-21T04:02:16.992Z,29.23
2018-11-21T04:05:09.556Z,30.13
2018-11-21T04:08:00.776Z,29.00
2018-11-21T04:10:44.557Z,30.53
2018-11-21T04:13:35.910Z,29.57
2018-11-21T04:16:19.264Z,30.57
2018-11-21T04:19:11.395Z,32.33
2018-11-21T04:21:55.447Z,31.90
2018-11-21T04:24:46.675Z,29.90
2018-11-21T04:27:30.426Z,34.67
2018-11-21T04:30:21.691Z,29.00
2018-11-21T04:33:05.851Z,29.90
2018-11-21T04:35:57.168Z,26.43
2018-11-21T04:39:00.676Z,26.83
2018-11-21T04:42:04.932Z,28.33
2018-11-21T04:44:54.879Z,29.23
2018-11-21T04:47:46.149Z,27.17
2018-11-21T04:50:29.664Z,27.70
2018-11-21T04:53:20.881Z,28.30
2018-11-21T04:56:07.095Z,27.63
2018-11-21T04:58:59.667Z,27.67
2018-11-21T05:01:43.582Z,27.67
2018-11-21T05:04:31.569Z,28.43
2018-11-21T05:07:15.593Z,29.80
2018-11-21T05:10:07.816Z,27.57
2018-11-21T05:12:51.639Z,26.80
2018-11-21T05:15:45.987Z,30.20
2018-11-21T05:18:26.296Z,29.23
2018-11-21T05:21:17.588Z,29.10
2018-11-21T05:24:00.950Z,30.20
2018-11-21T05:26:52.256Z,27.47
2018-11-21T05:29:35.679Z,31.33
2018-11-21T05:32:26.960Z,27.97
2018-11-21T05:35:17.255Z,31.63
2018-11-21T05:38:08.432Z,33.60
2018-11-21T05:40:52.511Z,30.03
2018-11-21T05:43:43.727Z,29.63
2018-11-21T05:46:27.952Z,32.03
2018-11-21T05:49:19.186Z,33.27
2018-11-21T05:52:02.407Z,32.50
2018-11-21T05:54:53.595Z,29.27
2018-11-21T05:57:38.054Z,31.10
2018-11-21T06:00:29.250Z,33.33
2018-11-21T06:03:13.039Z,31.47
2018-11-21T06:06:09.766Z,31.50
2018-11-21T06:08:47.524Z,30.43
2018-11-21T06:11:39.640Z,32.33
2018-11-21T06:14:26.163Z,32.57
2018-11-21T06:17:17.381Z,31.93
2018-11-21T06:20:00.943Z,35.03
2018-11-21T06:22:52.152Z,31.63
2018-11-21T06:25:35.800Z,32.93
2018-11-21T06:28:27.005Z,30.27
2018-11-21T06:31:11.100Z,33.97
2018-11-21T06:34:02.315Z,33.87
2018-11-21T06:36:45.808Z,32.77
2018-11-21T06:39:36.986Z,34.90
2018-11-21T06:42:21.141Z,31.57
2018-11-21T06:45:12.339Z,35.20
2018-11-21T06:47:56.369Z,33.70
2018-11-21T06:50:47.535Z,32.10
2018-11-21T06:53:31.050Z,32.23
2018-11-21T06:56:22.232Z,33.37
2018-11-21T06:59:05.682Z,35.23
2018-11-21T07:01:56.837Z,35.47
2018-11-21T07:04:40.479Z,32.93
2018-11-21T07:07:31.635Z,32.80
2018-11-21T07:10:16.555Z,32.63
2018-11-21T07:13:11.104Z,34.53
2018-11-21T07:15:51.461Z,28.83
2018-11-21T07:18:42.789Z,32.10
2018-11-21T07:21:26.149Z,29.50
2018-11-21T07:24:26.166Z,32.53
2018-11-21T07:27:00.850Z,28.63
2018-11-21T07:29:52.068Z,32.90
2018-11-21T07:32:35.671Z,30.10
2018-11-21T07:35:26.883Z,29.17
2018-11-21T07:38:10.415Z,28.73
2018-11-21T07:41:01.738Z,29.17
2018-11-21T07:43:45.247Z,26.73
2018-11-21T07:46:36.476Z,27.90
2018-11-21T07:49:20.598Z,25.13
2018-11-21T07:52:11.818Z,25.23
2018-11-21T07:54:55.018Z,27.23
2018-11-21T07:57:47.763Z,24.77
2018-11-21T08:04:19.535Z,24.73
2018-11-21T08:07:15.028Z,25.50
2018-11-21T08:10:25.633Z,22.97
2018-11-21T08:13:27.419Z,23.97
2018-11-21T08:16:37.196Z,20.87
2018-11-21T08:19:46.909Z,24.43
2018-11-21T08:22:56.638Z,20.83
2018-11-21T08:25:40.888Z,20.70
2018-11-21T08:28:32.717Z,20.00
2018-11-21T08:31:23.962Z,21.87
2018-11-21T08:34:08.013Z,23.20
2018-11-21T08:36:59.186Z,19.23
2018-11-21T08:39:42.750Z,22.13
2018-11-21T08:42:33.948Z,19.73
2018-11-21T08:45:17.803Z,20.60
2018-11-21T08:48:09.622Z,21.33
2018-11-21T08:50:52.991Z,21.43
2018-11-21T08:53:44.201Z,19.17
2018-11-21T08:56:28.315Z,20.37
2018-11-21T09:02:04.256Z,21.30
2018-11-21T09:04:55.453Z,19.83
2018-11-21T09:07:39.935Z,20.07
2018-11-21T09:13:14.305Z,21.20
2018-11-21T09:16:05.548Z,22.17
2018-11-21T09:18:49.339Z,23.83
2018-11-21T09:21:40.660Z,22.63
2018-11-21T09:24:24.526Z,21.83
2018-11-21T09:27:15.743Z,22.00
2018-11-21T09:29:59.113Z,20.63
2018-11-21T09:32:51.940Z,21.10
2018-11-21T09:35:36.369Z,20.93
2018-11-21T09:38:27.652Z,19.90
2018-11-21T09:41:11.517Z,18.83
2018-11-21T09:44:02.743Z,19.60
2018-11-21T09:46:48.089Z,20.70
2018-11-21T09:49:18.512Z,20.40
2018-11-21T09:52:12.223Z,20.63
2018-11-21T09:55:03.447Z,20.43
2018-11-21T09:57:47.081Z,22.33
2018-11-21T10:01:16.105Z,22.53
2018-11-21T10:04:01.021Z,18.80
2018-11-21T10:06:51.490Z,20.13
2018-11-21T10:09:37.153Z,18.97
2018-11-21T10:12:12.214Z,17.90
2018-11-21T10:15:00.841Z,21.07
2018-11-21T10:17:52.083Z,22.13
2018-11-21T10:20:37.669Z,22.03
2018-11-21T10:23:26.546Z,18.97
2018-11-21T10:26:10.684Z,16.97
2018-11-21T10:29:01.903Z,18.30
2018-11-21T10:31:45.190Z,19.50
2018-11-21T10:34:36.419Z,18.40
2018-11-21T10:37:19.826Z,17.03
2018-11-21T10:40:10.345Z,18.47
2018-11-21T10:42:54.323Z,19.10
2018-11-21T10:45:47.656Z,19.73
2018-11-21T10:48:29.070Z,18.17
2018-11-21T10:51:20.347Z,17.40
2018-11-21T10:54:04.239Z,18.03
2018-11-21T10:56:55.463Z,20.30
2018-11-21T10:59:38.846Z,18.20
2018-11-21T11:02:48.607Z,19.00
2018-11-21T11:05:50.528Z,19.83
2018-11-21T11:09:00.267Z,20.47
2018-11-21T11:12:05.169Z,18.77
2018-11-21T11:15:14.936Z,18.93
2018-11-21T11:18:24.732Z,21.70
2018-11-21T11:21:26.763Z,18.20
2018-11-21T11:24:36.471Z,17.10
2018-11-21T11:27:39.233Z,18.70
2018-11-21T11:30:48.989Z,17.27
2018-11-21T11:33:50.950Z,17.13
2018-11-21T11:36:48.698Z,16.57
2018-11-21T11:39:58.558Z,15.67
2018-11-21T11:43:02.976Z,16.07
2018-11-21T11:45:52.001Z,15.37
2018-11-21T11:48:42.998Z,14.07
2018-11-21T11:51:52.734Z,15.90
2018-11-21T11:54:46.491Z,14.27
2018-11-21T11:57:56.284Z,15.60
2018-11-21T12:00:58.325Z,14.47
2018-11-21T12:04:08.128Z,14.23
2018-11-21T12:07:06.877Z,14.33
2018-11-21T12:10:16.648Z,13.90
2018-11-21T12:13:18.058Z,13.07
2018-11-21T12:16:22.823Z,13.67
2018-11-21T12:19:32.560Z,12.17
2018-11-21T12:22:40.553Z,16.07
2018-11-21T12:25:50.283Z,13.43
2018-11-21T12:28:45.508Z,13.30
2018-11-21T12:31:55.254Z,13.60
2018-11-21T12:34:57.345Z,13.60
2018-11-21T12:38:07.123Z,12.90
2018-11-21T12:41:11.907Z,12.80
2018-11-21T12:44:21.740Z,14.00
2018-11-21T12:47:31.456Z,13.73
2018-11-21T12:50:41.307Z,13.83
2018-11-21T12:53:49.049Z,13.07
2018-11-21T12:56:55.966Z,14.87
2018-11-21T12:59:58.330Z,12.97
2018-11-21T13:03:08.260Z,13.07
2018-11-21T13:06:10.956Z,13.87
2018-11-21T13:09:20.679Z,14.00
2018-11-21T13:12:22.875Z,15.07
2018-11-21T13:15:32.608Z,14.17
2018-11-21T13:18:34.550Z,15.03
2018-11-21T13:22:03.255Z,15.17
2018-11-21T13:25:06.329Z,20.57
2018-11-21T13:31:18.695Z,16.97
2018-11-21T13:34:28.484Z,15.50
2018-11-21T13:37:31.247Z,14.87
2018-11-21T13:40:30.704Z,15.10
2018-11-21T13:43:33.505Z,15.33
2018-11-21T13:46:43.275Z,15.77
2018-11-21T13:49:34.168Z,15.33
2018-11-21T13:52:43.922Z,19.77
2018-11-21T13:55:28.272Z,15.13
2018-11-21T13:58:22.312Z,16.50
2018-11-21T14:01:04.795Z,17.50
2018-11-21T14:03:58.017Z,15.27
2018-11-21T14:06:40.245Z,16.13
2018-11-21T14:09:31.556Z,17.53
2018-11-21T14:12:14.997Z,16.20
2018-11-21T14:15:06.511Z,16.07
2018-11-21T14:17:38.890Z,17.47
2018-11-21T14:20:30.114Z,17.13
2018-11-21T14:23:21.385Z,17.77
2018-11-21T14:26:04.705Z,16.33
2018-11-21T14:28:55.935Z,17.23
2018-11-21T14:31:39.460Z,18.57
2018-11-21T14:34:30.718Z,17.87
2018-11-21T14:37:14.445Z,17.83
2018-11-21T14:40:07.294Z,16.53
2018-11-21T14:42:51.171Z,16.17
2018-11-21T14:45:42.385Z,16.73
2018-11-21T14:48:26.391Z,16.67
2018-11-21T14:51:17.665Z,16.07
2018-11-21T14:54:03.612Z,17.97
2018-11-21T14:56:52.739Z,16.80
2018-11-21T14:59:36.346Z,17.37
2018-11-21T15:02:27.581Z,17.90
2018-11-21T15:05:11.900Z,16.37
2018-11-21T15:07:45.202Z,31.07
2018-11-21T15:10:36.385Z,21.43
2018-11-21T15:13:27.583Z,14.77
2018-11-21T15:16:11.537Z,16.77
2018-11-21T15:19:02.782Z,17.20
2018-11-21T15:21:46.048Z,16.37
2018-11-21T15:24:37.620Z,18.77
2018-11-21T15:27:24.263Z,17.37
2018-11-21T15:30:15.496Z,18.97
2018-11-21T15:32:58.961Z,16.70
2018-11-21T15:35:52.301Z,18.73
2018-11-21T15:38:33.789Z,17.30
2018-11-21T15:41:25.249Z,17.33
2018-11-21T15:44:08.895Z,17.90
2018-11-21T15:47:02.072Z,16.83
2018-11-21T15:49:43.813Z,15.93
2018-11-21T15:52:37.450Z,17.57
2018-11-21T15:55:19.443Z,18.67
2018-11-21T15:58:10.797Z,18.37
2018-11-21T16:00:54.090Z,15.87
2018-11-21T16:03:45.384Z,16.87
2018-11-21T16:06:29.256Z,16.50
2018-11-21T16:09:21.390Z,16.67
2018-11-21T16:12:05.056Z,18.07
2018-11-21T16:14:48.589Z,16.97
2018-11-21T16:17:58.832Z,16.37
2018-11-21T16:20:44.311Z,16.37
2018-11-21T16:23:37.472Z,17.53
2018-11-21T16:26:21.447Z,18.00
2018-11-21T16:29:15.004Z,21.67
2018-11-21T16:32:01.300Z,16.27
2018-11-21T16:34:52.756Z,17.20
2018-11-21T16:37:56.236Z,15.33
2018-11-21T16:40:47.456Z,19.03
2018-11-21T16:43:31.024Z,18.20
2018-11-21T16:46:24.496Z,19.10
2018-11-21T16:49:08.251Z,15.83
2018-11-21T16:52:21.349Z,15.67
2018-11-21T16:55:26.900Z,17.60
2018-11-21T17:01:21.690Z,20.57
2018-11-21T17:04:12.930Z,16.90
2018-11-21T17:06:57.159Z,17.20
2018-11-21T17:09:48.829Z,16.07
2018-11-21T17:12:32.690Z,15.60
2018-11-21T17:15:25.554Z,18.60
2018-11-21T17:18:09.061Z,16.43
2018-11-21T17:21:01.797Z,16.33
2018-11-21T17:24:05.223Z,17.67
2018-11-21T17:26:56.922Z,18.47
2018-11-21T17:29:53.457Z,17.97
2018-11-21T17:32:41.204Z,18.10
2018-11-21T17:38:49.110Z,18.57
2018-11-21T17:41:35.744Z,18.90
2018-11-21T17:44:43.840Z,17.00
2018-11-21T17:47:27.192Z,16.77
2018-11-21T17:50:41.680Z,19.37
2018-11-21T17:53:25.538Z,15.70
2018-11-21T17:56:16.747Z,16.43
2018-11-21T17:59:00.614Z,18.73
2018-11-21T18:01:51.872Z,18.37
2018-11-21T18:04:35.673Z,16.57
2018-11-21T18:07:27.006Z,16.73
2018-11-21T18:10:32.423Z,16.53
2018-11-21T18:13:23.689Z,18.30
2018-11-21T18:16:14.898Z,17.17
2018-11-21T18:19:18.588Z,19.70
2018-11-21T18:22:29.204Z,19.97
2018-11-21T18:25:36.525Z,19.73
2018-11-21T18:32:03.450Z,19.30
2018-11-21T18:35:00.522Z,16.93
2018-11-21T18:37:51.790Z,18.90
2018-11-21T18:40:35.414Z,17.70
2018-11-21T18:43:27.077Z,23.10
2018-11-21T18:46:10.554Z,22.93
2018-11-21T18:49:01.995Z,17.93
2018-11-21T18:51:45.797Z,17.80
2018-11-21T18:54:37.109Z,18.40
2018-11-21T18:57:26.410Z,16.93
2018-11-21T19:00:21.066Z,17.57
2018-11-21T19:03:04.570Z,18.27
2018-11-21T19:05:55.866Z,17.80
2018-11-21T19:08:39.245Z,16.47
2018-11-21T19:11:30.509Z,18.93
2018-11-21T19:14:14.220Z,25.43
2018-11-21T19:17:05.567Z,19.70
2018-11-21T19:19:49.575Z,17.47
2018-11-21T19:22:59.795Z,18.63
2018-11-21T19:25:59.577Z,18.00
2018-11-21T19:28:57.486Z,18.30
2018-11-21T19:31:41.173Z,27.73
2018-11-21T19:34:32.477Z,28.43
2018-11-21T19:37:16.069Z,21.70
2018-11-21T19:40:14.961Z,27.03
2018-11-21T19:42:56.383Z,24.77
2018-11-21T19:45:47.633Z,19.93
2018-11-21T19:48:31.125Z,21.43
2018-11-21T19:51:23.676Z,19.07
2018-11-21T19:54:14.973Z,19.23
2018-11-21T19:57:18.789Z,17.90
2018-11-21T20:00:30.507Z,17.73
2018-11-21T20:03:14.544Z,18.43
2018-11-21T20:05:46.784Z,19.37
2018-11-21T20:08:38.026Z,19.40
2018-11-21T20:11:29.236Z,18.87
2018-11-21T20:14:13.454Z,19.73
2018-11-21T20:16:56.977Z,20.03
2018-11-21T20:19:50.436Z,18.90
2018-11-21T20:22:31.573Z,17.73
2018-11-21T20:25:25.777Z,28.63
2018-11-21T20:28:09.529Z,30.93
2018-11-21T20:31:00.845Z,22.83
2018-11-21T20:33:48.278Z,19.27
2018-11-21T20:36:36.250Z,26.27
2018-11-21T20:39:19.566Z,25.87
2018-11-21T20:42:10.817Z,18.97
2018-11-21T20:44:54.945Z,19.20
2018-11-21T20:47:46.574Z,18.13
2018-11-21T20:50:30.062Z,18.60
2018-11-21T20:53:21.314Z,19.57
2018-11-21T20:56:04.926Z,22.93
2018-11-21T20:58:56.119Z,25.43
2018-11-21T21:01:40.045Z,21.47
2018-11-21T21:04:31.281Z,21.73
2018-11-21T21:07:25.328Z,24.67
2018-11-21T21:10:05.885Z,25.30
2018-11-21T21:12:57.126Z,27.50
2018-11-21T21:15:40.806Z,31.20
2018-11-21T21:18:33.969Z,31.70
2018-11-21T21:21:15.969Z,32.00
2018-11-21T21:24:07.292Z,35.17
2018-11-21T21:26:50.889Z,35.30
2018-11-21T21:29:42.161Z,34.17
2018-11-21T21:32:25.887Z,34.00
2018-11-21T21:35:18.197Z,36.67
2018-11-21T21:38:01.870Z,38.87
2018-11-21T21:40:53.080Z,37.47
2018-11-21T21:43:37.079Z,39.37
2018-11-21T21:46:28.351Z,49.37
2018-11-21T21:49:11.706Z,69.07
2018-11-21T21:52:04.732Z,38.87
2018-11-21T21:54:49.298Z,37.83
2018-11-21T21:57:37.894Z,36.63
2018-11-21T22:00:23.064Z,38.37
2018-11-21T22:03:14.323Z,41.63
2018-11-21T22:05:57.744Z,42.67
2018-11-21T22:08:49.112Z,41.37
2018-11-21T22:11:32.627Z,39.93
2018-11-21T22:14:25.941Z,38.87
2018-11-21T22:17:07.527Z,41.33
2018-11-21T22:19:58.750Z,41.03
2018-11-21T22:22:44.709Z,41.37
2018-11-21T22:25:33.845Z,38.33
2018-11-21T22:28:17.723Z,38.37
2018-11-21T22:31:09.046Z,42.17
2018-11-21T22:33:52.439Z,38.97
2018-11-21T22:36:43.704Z,35.27
2018-11-21T22:39:27.001Z,38.57
2018-11-21T22:42:18.241Z,43.87
2018-11-21T22:45:02.243Z,45.73
2018-11-21T22:47:53.496Z,43.17
2018-11-21T22:50:37.451Z,39.23
2018-11-21T22:53:28.722Z,39.93
2018-11-21T22:56:12.725Z,40.27
2018-11-21T22:59:03.991Z,38.83
2018-11-21T23:01:50.489Z,42.47
2018-11-21T23:04:38.989Z,41.77
2018-11-21T23:07:22.527Z,39.10
2018-11-21T23:10:15.056Z,39.27
2018-11-21T23:12:59.094Z,40.40
2018-11-21T23:15:50.311Z,44.73
2018-11-21T23:18:33.850Z,42.20
2018-11-21T23:21:27.757Z,41.63
2018-11-21T23:24:09.002Z,44.63
2018-11-21T23:27:00.280Z,41.17
2018-11-21T23:29:43.587Z,37.40
2018-11-21T23:32:34.849Z,44.73
2018-11-21T23:35:20.088Z,45.27
2018-11-21T23:38:14.111Z,66.10
2018-11-21T23:40:54.683Z,41.40
2018-11-21T23:43:45.947Z,38.83
2018-11-21T23:46:31.378Z,39.07
2018-11-21T23:49:20.744Z,41.40
2018-11-21T23:51:53.074Z,42.30
2018-11-21T23:54:44.339Z,40.00
2018-11-21T23:57:31.193Z,40.97
